createdAt,value
2022-08-02T00:00:12.155Z,95608.88
2022-08-02T00:02:39.100Z,95600.19
2022-08-02T00:05:06.813Z,95601.34
2022-08-02T00:07:37.721Z,95605.28
2022-08-02T00:10:09.544Z,95604.88
2022-08-02T00:12:36.597Z,95607.28
2022-08-02T00:15:04.567Z,95601.38
2022-08-02T00:17:31.186Z,95603.34
2022-08-02T00:19:57.832Z,95614.38
2022-08-02T00:22:24.481Z,95621.50
2022-08-02T00:24:51.069Z,95620.31
2022-08-02T00:27:18.389Z,95621.13
2022-08-02T00:29:52.906Z,95629.41
2022-08-02T00:32:23.092Z,95632.94
2022-08-02T00:34:50.500Z,95634.13
2022-08-02T00:37:17.036Z,95638.06
2022-08-02T00:39:43.632Z,95638.84
2022-08-02T00:42:11.457Z,95640.00
2022-08-02T00:44:38.284Z,95637.22
2022-08-02T00:47:05.170Z,95636.06
2022-08-02T00:49:32.131Z,95638.41
2022-08-02T00:52:00.306Z,95640.75
2022-08-02T00:54:27.488Z,95645.88
2022-08-02T00:56:54.151Z,95639.13
2022-08-02T00:59:20.919Z,95644.25
2022-08-02T01:01:56.675Z,95640.28
2022-08-02T01:04:31.091Z,95639.50
2022-08-02T01:07:03.344Z,95637.13
2022-08-02T01:09:40.414Z,95635.13
2022-08-02T01:12:07.883Z,95627.25
2022-08-02T01:14:34.708Z,95631.97
2022-08-02T01:17:28.649Z,95626.03
2022-08-02T01:20:20.059Z,95629.94
2022-08-02T01:23:13.833Z,95637.00
2022-08-02T01:25:52.491Z,95625.19
2022-08-02T01:28:37.724Z,95628.31
2022-08-02T01:31:19.250Z,95628.69
2022-08-02T01:33:54.165Z,95622.78
2022-08-02T01:36:23.750Z,95614.06
2022-08-02T01:38:54.569Z,95615.25
2022-08-02T01:41:25.495Z,95621.16
2022-08-02T01:43:56.704Z,95616.41
2022-08-02T01:46:25.308Z,95617.19
2022-08-02T01:48:54.455Z,95622.66
2022-08-02T01:51:22.113Z,95612.81
2022-08-02T01:53:51.203Z,95617.50
2022-08-02T01:56:19.585Z,95623.41
2022-08-02T01:58:48.101Z,95626.09
2022-08-02T02:01:18.734Z,95620.56
2022-08-02T02:03:48.685Z,95622.50
2022-08-02T02:06:16.233Z,95616.13
2022-08-02T02:08:44.373Z,95613.69
2022-08-02T02:12:05.849Z,95619.84
2022-08-02T02:14:00.854Z,95610.44
2022-08-02T02:16:28.537Z,95623.84
2022-08-02T02:18:55.290Z,95618.31
2022-08-02T02:21:22.057Z,95615.09
2022-08-02T02:23:50.064Z,95614.69
2022-08-02T02:26:29.629Z,95609.16
2022-08-02T02:29:02.328Z,95622.50
2022-08-02T02:31:34.728Z,95625.22
2022-08-02T02:34:04.738Z,95621.28
2022-08-02T02:36:34.042Z,95614.53
2022-08-02T02:39:04.181Z,95621.22
2022-08-02T02:41:31.020Z,95617.63
2022-08-02T02:44:01.290Z,95618.00
2022-08-02T02:46:30.653Z,95616.78
2022-08-02T02:48:58.312Z,95621.88
2022-08-02T02:51:25.595Z,95622.25
2022-08-02T02:54:30.589Z,95619.09
2022-08-02T02:56:41.068Z,95632.28
2022-08-02T02:59:09.044Z,95628.47
2022-08-02T03:01:56.621Z,95616.28
2022-08-02T03:04:24.959Z,95628.09
2022-08-02T03:06:51.680Z,95640.28
2022-08-02T03:09:18.303Z,95628.84
2022-08-02T03:11:45.604Z,95631.22
2022-08-02T03:14:13.076Z,95628.47
2022-08-02T03:16:47.989Z,95631.22
2022-08-02T03:19:15.172Z,95645.84
2022-08-02T03:21:46.237Z,95641.91
2022-08-02T03:24:13.729Z,95640.81
2022-08-02T03:26:41.433Z,95648.69
2022-08-02T03:29:09.763Z,95643.19
2022-08-02T03:31:41.428Z,95638.09
2022-08-02T03:34:08.456Z,95643.59
2022-08-02T03:36:35.449Z,95634.91
2022-08-02T03:39:03.686Z,95632.16
2022-08-02T03:41:32.679Z,95643.56
2022-08-02T03:44:00.690Z,95644.72
2022-08-02T03:46:27.599Z,95645.09
2022-08-02T03:48:54.823Z,95650.59
2022-08-02T03:51:22.636Z,95646.66
2022-08-02T03:53:50.000Z,95654.09
2022-08-02T03:56:17.005Z,95651.34
2022-08-02T03:58:48.633Z,95658.47
2022-08-02T04:01:16.164Z,95659.63
2022-08-02T04:03:42.966Z,95655.69
2022-08-02T04:06:09.615Z,95662.81
2022-08-02T04:08:38.374Z,95665.56
2022-08-02T04:11:06.584Z,95674.63
2022-08-02T04:13:36.132Z,95671.88
2022-08-02T04:16:17.928Z,95674.25
2022-08-02T04:18:55.625Z,95666.75
2022-08-02T04:21:25.797Z,95667.19
2022-08-02T04:23:53.256Z,95662.53
2022-08-02T04:26:26.777Z,95663.75
2022-08-02T04:28:56.848Z,95648.84
2022-08-02T04:31:23.558Z,95649.66
2022-08-02T04:33:50.594Z,95661.16
2022-08-02T04:36:30.996Z,95664.38
2022-08-02T04:38:58.508Z,95664.03
2022-08-02T04:41:40.760Z,95670.00
2022-08-02T04:44:10.634Z,95678.41
2022-08-02T04:46:37.423Z,95672.97
2022-08-02T04:49:04.837Z,95686.41
2022-08-02T04:51:37.673Z,95695.16
2022-08-02T04:54:09.506Z,95686.94
2022-08-02T04:56:36.336Z,95688.56
2022-08-02T04:59:03.036Z,95689.81
2022-08-02T05:01:29.628Z,95691.81
2022-08-02T05:03:56.250Z,95691.84
2022-08-02T05:06:22.858Z,95689.16
2022-08-02T05:08:52.823Z,95691.94
2022-08-02T05:11:21.348Z,95700.25
2022-08-02T05:13:58.872Z,95708.56
2022-08-02T05:16:30.859Z,95707.03
2022-08-02T05:18:58.714Z,95706.34
2022-08-02T05:21:25.236Z,95711.50
2022-08-02T05:23:51.786Z,95706.44
2022-08-02T05:26:18.508Z,95706.50
2022-08-02T05:28:45.282Z,95703.34
2022-08-02T05:31:13.406Z,95697.44
2022-08-02T05:33:40.705Z,95686.41
2022-08-02T05:36:07.536Z,95684.81
2022-08-02T05:38:36.973Z,95684.81
2022-08-02T05:41:05.339Z,95679.28
2022-08-02T05:43:32.764Z,95699.78
2022-08-02T05:45:59.774Z,95691.47
2022-08-02T05:48:31.179Z,95698.16
2022-08-02T05:51:17.012Z,95703.28
2022-08-02T05:53:52.082Z,95708.00
2022-08-02T05:56:50.915Z,95695.38
2022-08-02T05:59:32.476Z,95704.50
2022-08-02T06:02:04.570Z,95704.91
2022-08-02T06:04:51.182Z,95712.41
2022-08-02T06:07:19.604Z,95712.84
2022-08-02T06:09:49.107Z,95709.38
2022-08-02T06:12:17.288Z,95720.09
2022-08-02T06:14:46.111Z,95721.72
2022-08-02T06:17:14.105Z,95720.22
2022-08-02T06:19:51.516Z,95720.56
2022-08-02T06:22:32.542Z,95710.44
2022-08-02T06:25:04.147Z,95716.06
2022-08-02T06:27:31.775Z,95716.00
2022-08-02T06:29:58.604Z,95714.97
2022-08-02T06:32:26.877Z,95713.84
2022-08-02T06:34:53.515Z,95709.16
2022-08-02T06:37:29.318Z,95708.41
2022-08-02T06:40:07.990Z,95711.59
2022-08-02T06:43:12.396Z,95710.03
2022-08-02T06:45:40.117Z,95711.66
2022-08-02T06:48:07.872Z,95702.97
2022-08-02T06:50:35.512Z,95704.97
2022-08-02T06:53:02.095Z,95698.66
2022-08-02T06:55:28.690Z,95707.78
2022-08-02T06:57:55.263Z,95700.28
2022-08-02T07:00:21.961Z,95695.53
2022-08-02T07:02:49.487Z,95698.34
2022-08-02T07:05:16.389Z,95696.34
2022-08-02T07:07:43.022Z,95701.09
2022-08-02T07:10:09.816Z,95701.13
2022-08-02T07:12:36.423Z,95697.56
2022-08-02T07:15:06.107Z,95697.59
2022-08-02T07:17:33.557Z,95696.41
2022-08-02T07:20:00.917Z,95701.53
2022-08-02T07:22:28.247Z,95696.81
2022-08-02T07:24:57.463Z,95703.16
2022-08-02T07:27:24.322Z,95706.31
2022-08-02T07:29:51.165Z,95706.69
2022-08-02T07:32:19.147Z,95709.06
2022-08-02T07:34:50.624Z,95707.91
2022-08-02T07:37:32.564Z,95702.34
2022-08-02T07:40:11.812Z,95693.63
2022-08-02T07:42:40.041Z,95696.81
2022-08-02T07:45:07.134Z,95701.56
2022-08-02T07:47:37.302Z,95699.97
2022-08-02T07:50:04.589Z,95701.53
2022-08-02T07:52:31.240Z,95692.41
2022-08-02T07:54:57.921Z,95692.00
2022-08-02T07:57:24.502Z,95694.75
2022-08-02T07:59:51.142Z,95694.75
2022-08-02T08:02:17.898Z,95693.56
2022-08-02T08:04:44.646Z,95698.69
2022-08-02T08:07:11.244Z,95691.19
2022-08-02T08:09:38.704Z,95697.13
2022-08-02T08:12:06.532Z,95688.78
2022-08-02T08:14:33.215Z,95691.97
2022-08-02T08:17:00.676Z,95682.81
2022-08-02T08:19:49.976Z,95684.00
2022-08-02T08:22:14.240Z,95680.81
2022-08-02T08:24:41.485Z,95676.03
2022-08-02T08:27:08.179Z,95676.44
2022-08-02T08:29:34.696Z,95677.63
2022-08-02T08:32:01.289Z,95677.63
2022-08-02T08:34:27.837Z,95682.34
2022-08-02T08:36:54.449Z,95683.13
2022-08-02T08:39:21.010Z,95678.72
2022-08-02T08:41:47.865Z,95670.00
2022-08-02T08:44:14.534Z,95673.94
2022-08-02T08:46:43.226Z,95670.72
2022-08-02T08:49:18.323Z,95672.69
2022-08-02T08:51:45.251Z,95671.88
2022-08-02T08:54:15.924Z,95669.09
2022-08-02T08:56:43.834Z,95664.34
2022-08-02T08:59:10.483Z,95672.69
2022-08-02T09:01:49.960Z,95672.97
2022-08-02T09:04:18.553Z,95674.09
2022-08-02T09:06:45.156Z,95670.47
2022-08-02T09:09:11.762Z,95675.56
2022-08-02T09:11:38.333Z,95668.00
2022-08-02T09:14:05.315Z,95668.75
2022-08-02T09:16:32.986Z,95672.25
2022-08-02T09:19:00.021Z,95665.47
2022-08-02T09:21:36.431Z,95660.25
2022-08-02T09:24:14.734Z,95673.72
2022-08-02T09:26:42.247Z,95667.31
2022-08-02T09:29:09.137Z,95665.69
2022-08-02T09:31:35.648Z,95671.19
2022-08-02T09:34:02.312Z,95662.38
2022-08-02T09:36:40.191Z,95667.50
2022-08-02T09:39:08.976Z,95670.19
2022-08-02T09:41:37.593Z,95672.88
2022-08-02T09:44:06.783Z,95662.03
2022-08-02T09:46:39.194Z,95658.03
2022-08-02T09:49:15.576Z,95656.66
2022-08-02T09:51:45.180Z,95656.97
2022-08-02T09:54:18.814Z,95661.59
2022-08-02T09:56:59.375Z,95658.25
2022-08-02T09:59:27.646Z,95665.22
2022-08-02T10:02:01.741Z,95655.44
2022-08-02T10:04:34.360Z,95655.22
2022-08-02T10:07:19.255Z,95656.22
2022-08-02T10:09:49.010Z,95656.91
2022-08-02T10:12:16.049Z,95648.84
2022-08-02T10:14:43.185Z,95660.31
2022-08-02T10:17:09.895Z,95652.00
2022-08-02T10:20:02.076Z,95650.78
2022-08-02T10:22:23.888Z,95652.38
2022-08-02T10:24:51.435Z,95645.41
2022-08-02T10:27:21.541Z,95649.72
2022-08-02T10:29:53.760Z,95643.59
2022-08-02T10:32:37.575Z,95641.41
2022-08-02T10:35:18.240Z,95647.25
2022-08-02T10:37:47.860Z,95647.25
2022-08-02T10:40:15.043Z,95644.03
2022-08-02T10:42:47.225Z,95643.25
2022-08-02T10:45:17.386Z,95647.59
2022-08-02T10:48:10.337Z,95636.91
2022-08-02T10:50:46.270Z,95638.09
2022-08-02T10:53:23.978Z,95639.22
2022-08-02T10:55:51.791Z,95633.59
2022-08-02T10:58:26.218Z,95634.81
2022-08-02T11:00:53.926Z,95628.78
2022-08-02T11:03:29.119Z,95629.53
2022-08-02T11:06:03.566Z,95632.56
2022-08-02T11:08:30.342Z,95632.88
2022-08-02T11:11:16.729Z,95631.59
2022-08-02T11:14:07.316Z,95626.06
2022-08-02T11:16:59.917Z,95616.13
2022-08-02T11:19:27.596Z,95621.97
2022-08-02T11:22:07.164Z,95617.19
2022-08-02T11:24:35.350Z,95611.09
2022-08-02T11:27:04.975Z,95617.03
2022-08-02T11:29:33.458Z,95599.41
2022-08-02T11:32:06.855Z,95601.84
2022-08-02T11:34:37.421Z,95602.63
2022-08-02T11:37:05.238Z,95595.75
2022-08-02T11:39:31.869Z,95591.66
2022-08-02T11:42:00.668Z,95599.19
2022-08-02T11:44:29.251Z,95589.22
2022-08-02T11:47:01.841Z,95593.69
2022-08-02T11:49:28.779Z,95586.72
2022-08-02T11:52:00.979Z,95589.84
2022-08-02T11:54:32.469Z,95586.06
2022-08-02T11:57:21.964Z,95581.16
2022-08-02T11:59:53.550Z,95579.44
2022-08-02T12:02:22.874Z,95574.03
2022-08-02T12:05:05.637Z,95575.84
2022-08-02T12:07:45.850Z,95583.28
2022-08-02T12:10:21.504Z,95590.63
2022-08-02T12:12:57.250Z,95593.00
2022-08-02T12:15:34.237Z,95597.78
2022-08-02T12:18:01.860Z,95594.13
2022-08-02T12:20:37.143Z,95595.34
2022-08-02T12:23:04.681Z,95592.91
2022-08-02T12:25:34.509Z,95602.44
2022-08-02T12:28:23.340Z,95594.53
2022-08-02T12:31:00.146Z,95596.47
2022-08-02T12:33:29.782Z,95594.97
2022-08-02T12:35:56.595Z,95594.97
2022-08-02T12:38:23.304Z,95596.72
2022-08-02T12:40:49.989Z,95586.06
2022-08-02T12:43:22.422Z,95586.25
2022-08-02T12:45:53.493Z,95578.75
2022-08-02T12:48:42.206Z,95577.59
2022-08-02T12:51:50.754Z,95563.28
2022-08-02T12:54:31.235Z,95569.94
2022-08-02T12:57:11.059Z,95562.22
2022-08-02T12:59:40.444Z,95562.75
2022-08-02T13:02:09.601Z,95561.81
2022-08-02T13:04:37.124Z,95569.50
2022-08-02T13:07:04.936Z,95553.41
2022-08-02T13:09:42.324Z,95555.00
2022-08-02T13:12:09.125Z,95549.75
2022-08-02T13:14:39.934Z,95555.78
2022-08-02T13:17:08.966Z,95548.97
2022-08-02T13:19:36.645Z,95548.59
2022-08-02T13:22:11.315Z,95550.97
2022-08-02T13:24:55.063Z,95540.03
2022-08-02T13:27:24.800Z,95541.84
2022-08-02T13:29:52.612Z,95533.72
2022-08-02T13:32:19.238Z,95536.25
2022-08-02T13:34:45.982Z,95537.53
2022-08-02T13:37:12.611Z,95533.41
2022-08-02T13:39:39.216Z,95534.22
2022-08-02T13:42:06.090Z,95523.91
2022-08-02T13:44:33.347Z,95516.28
2022-08-02T13:47:00.876Z,95521.00
2022-08-02T13:49:50.021Z,95514.50
2022-08-02T13:52:14.505Z,95513.19
2022-08-02T13:54:41.398Z,95514.66
2022-08-02T13:57:08.111Z,95506.19
2022-08-02T13:59:57.457Z,95500.84
2022-08-02T14:02:21.377Z,95505.00
2022-08-02T14:04:48.165Z,95503.44
2022-08-02T14:07:14.692Z,95505.03
2022-08-02T14:09:41.597Z,95498.66
2022-08-02T14:12:08.332Z,95508.75
2022-08-02T14:14:35.029Z,95504.16
2022-08-02T14:17:02.030Z,95504.50
2022-08-02T14:19:28.663Z,95501.69
2022-08-02T14:21:55.836Z,95505.75
2022-08-02T14:24:38.251Z,95500.34
2022-08-02T14:27:05.051Z,95495.31
2022-08-02T14:29:31.603Z,95487.34
2022-08-02T14:31:58.232Z,95491.94
2022-08-02T14:34:24.785Z,95493.06
2022-08-02T14:36:53.824Z,95487.69
2022-08-02T14:39:21.230Z,95489.66
2022-08-02T14:41:59.962Z,95481.28
2022-08-02T14:44:28.412Z,95485.75
2022-08-02T14:46:54.906Z,95481.88
2022-08-02T14:49:25.388Z,95477.56
2022-08-02T14:51:55.833Z,95476.97
2022-08-02T14:54:27.790Z,95480.22
2022-08-02T14:56:55.801Z,95485.03
2022-08-02T14:59:22.644Z,95473.19
2022-08-02T15:01:49.276Z,95469.22
2022-08-02T15:04:15.888Z,95473.91
2022-08-02T15:06:42.536Z,95467.34
2022-08-02T15:09:09.131Z,95463.69
2022-08-02T15:11:48.283Z,95466.97
2022-08-02T15:14:26.045Z,95473.22
2022-08-02T15:16:57.028Z,95482.31
2022-08-02T15:19:39.242Z,95474.84
2022-08-02T15:22:11.512Z,95468.94
2022-08-02T15:24:43.124Z,95468.28
2022-08-02T15:27:10.016Z,95475.63
2022-08-02T15:29:37.218Z,95474.22
2022-08-02T15:32:03.848Z,95466.72
2022-08-02T15:34:30.515Z,95468.16
2022-08-02T15:36:57.109Z,95466.34
2022-08-02T15:39:23.824Z,95465.50
2022-08-02T15:41:50.442Z,95470.44
2022-08-02T15:44:17.035Z,95463.25
2022-08-02T15:46:43.694Z,95456.72
2022-08-02T15:49:10.213Z,95465.50
2022-08-02T15:51:36.904Z,95462.44
2022-08-02T15:54:03.500Z,95467.41
2022-08-02T15:56:30.064Z,95466.25
2022-08-02T15:58:57.063Z,95464.88
2022-08-02T16:01:25.721Z,95456.91
2022-08-02T16:04:04.706Z,95453.44
2022-08-02T16:06:31.274Z,95461.00
2022-08-02T16:08:57.896Z,95461.97
2022-08-02T16:11:24.432Z,95470.25
2022-08-02T16:13:52.743Z,95456.69
2022-08-02T16:16:25.375Z,95468.44
2022-08-02T16:18:52.066Z,95467.19
2022-08-02T16:21:18.762Z,95461.09
2022-08-02T16:24:01.843Z,95467.75
2022-08-02T16:26:33.281Z,95471.13
2022-08-02T16:29:01.288Z,95474.38
2022-08-02T16:31:28.231Z,95468.44
2022-08-02T16:33:56.556Z,95462.22
2022-08-02T16:36:25.191Z,95465.22
2022-08-02T16:38:53.878Z,95461.81
2022-08-02T16:41:21.500Z,95450.16
2022-08-02T16:43:48.104Z,95453.28
2022-08-02T16:46:14.985Z,95450.75
2022-08-02T16:51:23.664Z,95442.53
2022-08-02T16:54:00.483Z,95435.75
2022-08-02T16:56:30.356Z,95433.97
2022-08-02T16:59:57.772Z,95439.28
2022-08-02T17:02:26.659Z,95438.66
2022-08-02T17:04:54.750Z,95449.75
2022-08-02T17:08:07.424Z,95435.16
2022-08-02T17:10:14.285Z,95445.25
2022-08-02T17:12:45.926Z,95446.03
2022-08-02T17:16:01.525Z,95443.28
2022-08-02T17:18:05.332Z,95449.06
2022-08-02T17:20:35.986Z,95446.75
2022-08-02T17:23:04.056Z,95448.50
2022-08-02T17:25:32.028Z,95451.28
2022-08-02T17:27:59.428Z,95445.91
2022-08-02T17:30:27.262Z,95449.75
2022-08-02T17:32:57.799Z,95447.44
2022-08-02T17:35:26.838Z,95442.75
2022-08-02T17:38:10.468Z,95449.94
2022-08-02T17:40:37.428Z,95449.16
2022-08-02T17:43:14.492Z,95453.81
2022-08-02T17:46:00.222Z,95453.28
2022-08-02T17:48:29.327Z,95450.41
2022-08-02T17:51:04.146Z,95454.66
2022-08-02T17:53:36.233Z,95456.19
2022-08-02T17:56:03.374Z,95465.72
2022-08-02T17:58:33.465Z,95466.19
2022-08-02T18:01:00.678Z,95468.28
2022-08-02T18:03:28.591Z,95473.47
2022-08-02T18:05:57.537Z,95480.94
2022-08-02T18:08:24.601Z,95478.66
2022-08-02T18:10:53.704Z,95480.28
2022-08-02T18:13:23.857Z,95477.03
2022-08-02T18:15:51.839Z,95471.69
2022-08-02T18:18:29.264Z,95472.72
2022-08-02T18:20:56.876Z,95479.34
2022-08-02T18:23:24.297Z,95472.59
2022-08-02T18:25:55.172Z,95476.22
2022-08-02T18:28:26.759Z,95481.28
2022-08-02T18:30:53.751Z,95474.13
2022-08-02T18:33:57.199Z,95490.00
2022-08-02T18:36:11.030Z,95482.78
2022-08-02T18:38:51.411Z,95485.75
2022-08-02T18:41:18.948Z,95487.78
2022-08-02T18:43:48.521Z,95485.16
2022-08-02T18:46:17.290Z,95490.00
2022-08-02T18:48:48.006Z,95495.59
2022-08-02T18:51:15.144Z,95486.38
2022-08-02T18:53:42.831Z,95488.06
2022-08-02T18:56:20.295Z,95496.00
2022-08-02T18:58:55.242Z,95493.97
2022-08-02T19:01:33.883Z,95496.31
2022-08-02T19:04:02.977Z,95500.97
2022-08-02T19:06:29.932Z,95507.63
2022-08-02T19:09:05.434Z,95493.56
2022-08-02T19:11:38.317Z,95505.44
2022-08-02T19:14:05.105Z,95504.47
2022-08-02T19:16:36.827Z,95509.09
2022-08-02T19:19:07.446Z,95512.13
2022-08-02T19:22:26.521Z,95507.94
2022-08-02T19:24:20.776Z,95509.78
2022-08-02T19:26:51.715Z,95511.97
2022-08-02T19:29:25.053Z,95510.91
2022-08-02T19:32:39.201Z,95507.50
2022-08-02T19:34:53.360Z,95515.66
2022-08-02T19:37:20.076Z,95516.19
2022-08-02T19:39:46.693Z,95513.13
2022-08-02T19:42:14.748Z,95513.31
2022-08-02T19:44:45.075Z,95520.97
2022-08-02T19:47:12.981Z,95515.13
2022-08-02T19:49:48.676Z,95518.84
2022-08-02T19:52:22.121Z,95519.34
2022-08-02T19:54:55.356Z,95519.06
2022-08-02T19:57:22.779Z,95519.56
2022-08-02T19:59:49.620Z,95522.84
2022-08-02T20:02:18.074Z,95525.66
2022-08-02T20:04:50.372Z,95522.97
2022-08-02T20:07:54.952Z,95526.25
2022-08-02T20:10:10.960Z,95529.16
2022-08-02T20:12:41.928Z,95527.63
2022-08-02T20:15:14.468Z,95530.91
2022-08-02T20:17:47.360Z,95534.16
2022-08-02T20:20:14.691Z,95531.81
2022-08-02T20:22:41.513Z,95535.84
2022-08-02T20:25:10.294Z,95533.94
2022-08-02T20:27:50.995Z,95531.59
2022-08-02T20:30:18.216Z,95537.63
2022-08-02T20:32:52.726Z,95530.56
2022-08-02T20:35:23.234Z,95529.81
2022-08-02T20:38:01.420Z,95527.88
2022-08-02T20:40:29.621Z,95521.16
2022-08-02T20:42:56.788Z,95535.84
2022-08-02T20:45:24.048Z,95527.50
2022-08-02T20:47:54.577Z,95528.72
2022-08-02T20:50:22.328Z,95532.75
2022-08-02T20:52:57.647Z,95532.72
2022-08-02T20:55:25.015Z,95535.94
2022-08-02T20:58:00.273Z,95540.28
2022-08-02T21:00:27.964Z,95535.97
2022-08-02T21:02:54.507Z,95542.31
2022-08-02T21:05:26.738Z,95538.00
2022-08-02T21:08:11.532Z,95538.38
2022-08-02T21:10:43.594Z,95538.41
2022-08-02T21:13:18.522Z,95536.06
2022-08-02T21:15:46.023Z,95532.88
2022-08-02T21:18:23.888Z,95537.66
2022-08-02T21:20:59.902Z,95535.31
2022-08-02T21:23:27.328Z,95528.56
2022-08-02T21:25:57.276Z,95534.50
2022-08-02T21:28:24.739Z,95525.81
2022-08-02T21:31:10.081Z,95525.44
2022-08-02T21:33:57.105Z,95530.56
2022-08-02T21:36:23.440Z,95524.25
2022-08-02T21:38:58.140Z,95521.91
2022-08-02T21:41:24.718Z,95514.78
2022-08-02T21:44:07.422Z,95521.13
2022-08-02T21:46:34.691Z,95523.50
2022-08-02T21:49:01.735Z,95526.25
2022-08-02T21:51:29.095Z,95525.88
2022-08-02T21:54:18.638Z,95526.69
2022-08-02T21:56:48.484Z,95530.63
2022-08-02T21:59:17.252Z,95526.28
2022-08-02T22:01:52.864Z,95523.84
2022-08-02T22:04:21.350Z,95522.31
2022-08-02T22:06:49.077Z,95521.88
2022-08-02T22:09:43.983Z,95524.66
2022-08-02T22:12:09.709Z,95527.44
2022-08-02T22:14:39.429Z,95519.50
2022-08-02T22:17:08.775Z,95524.25
2022-08-02T22:19:40.151Z,95525.81
2022-08-02T22:22:20.689Z,95525.78
2022-08-02T22:24:55.940Z,95517.91
2022-08-02T22:27:23.573Z,95525.75
2022-08-02T22:30:10.732Z,95529.31
2022-08-02T22:32:38.091Z,95534.06
2022-08-02T22:35:08.786Z,95530.47
2022-08-02T22:38:14.920Z,95529.69
2022-08-02T22:40:22.120Z,95525.31
2022-08-02T22:42:50.910Z,95526.47
2022-08-02T22:45:17.447Z,95530.41
2022-08-02T22:47:50.854Z,95522.50
2022-08-02T22:50:18.083Z,95532.34
2022-08-02T22:52:46.857Z,95535.84
2022-08-02T22:55:17.430Z,95529.91
2022-08-02T22:57:56.635Z,95540.53
2022-08-02T23:00:25.497Z,95544.06
2022-08-02T23:02:52.041Z,95540.44
2022-08-02T23:05:18.682Z,95540.88
2022-08-02T23:07:45.328Z,95537.69
2022-08-02T23:10:11.975Z,95538.06
2022-08-02T23:12:38.563Z,95539.66
2022-08-02T23:15:05.510Z,95537.66
2022-08-02T23:17:32.367Z,95537.66
2022-08-02T23:19:58.931Z,95534.47
2022-08-02T23:22:29.864Z,95543.50
2022-08-02T23:25:00.213Z,95537.97
2022-08-02T23:27:26.862Z,95541.84
2022-08-02T23:29:53.488Z,95544.59
2022-08-02T23:32:22.881Z,95541.81
2022-08-02T23:34:53.188Z,95546.50
2022-08-02T23:37:19.850Z,95544.91
2022-08-02T23:39:46.614Z,95548.44
2022-08-02T23:42:13.289Z,95537.75
2022-08-02T23:44:40.290Z,95546.41
2022-08-02T23:47:07.324Z,95549.53
2022-08-02T23:49:34.000Z,95553.84
2022-08-02T23:52:01.980Z,95549.91
2022-08-02T23:54:28.784Z,95548.19
2022-08-02T23:56:55.544Z,95543.91
2022-08-02T23:59:22.049Z,95552.94
